Time;durP1;ratioP1;P1;durP2;ratioP2;P2;SDS_P1;SDS_P2;PMS_P1;PMS_P2;Temp;Humidity;BMP_temperature;BMP_pressure;BME280_temperature;BME280_humidity;BME280_pressure;Samples;Min_cycle;Max_cycle;Signal;HPM_P1;HPM_P2
2022/09/09 00:00:15;;;;;;;0.30;0.30;;;15.30;99.90;;;;;;5073246;28;20467;-79
2022/09/09 00:02:46;;;;;;;0.30;0.30;;;15.30;99.90;;;;;;5073161;28;20473;-79
2022/09/09 00:05:22;;;;;;;3.53;0.50;;;15.30;99.90;;;;;;5072909;28;20908;-79
2022/09/09 00:07:55;;;;;;;0.40;0.30;;;15.30;99.90;;;;;;5072906;28;20428;-78
2022/09/09 00:10:28;;;;;;;0.53;0.53;;;15.30;99.90;;;;;;5073221;28;20449;-79
2022/09/09 00:13:02;;;;;;;0.30;0.30;;;15.30;99.90;;;;;;5073096;28;20467;-78
2022/09/09 00:15:34;;;;;;;0.30;0.30;;;15.30;99.90;;;;;;5073649;28;20437;-79
2022/09/09 00:18:10;;;;;;;1.20;0.50;;;15.40;99.90;;;;;;5072999;28;20472;-79
2022/09/09 00:20:41;;;;;;;0.40;0.30;;;15.40;99.90;;;;;;5073081;28;20433;-79
2022/09/09 00:23:19;;;;;;;0.60;0.40;;;15.40;99.90;;;;;;5072990;28;20480;-78
2022/09/09 00:25:53;;;;;;;0.40;0.40;;;15.50;99.90;;;;;;5072848;28;20425;-79
2022/09/09 00:28:21;;;;;;;0.50;0.50;;;15.50;99.90;;;;;;5072964;28;20425;-79
2022/09/09 00:30:49;;;;;;;0.80;0.80;;;15.50;99.90;;;;;;5072920;28;20820;-79
2022/09/09 00:33:18;;;;;;;0.70;0.70;;;15.60;99.90;;;;;;5072820;28;20468;-79
2022/09/09 00:35:48;;;;;;;0.40;0.30;;;15.60;99.90;;;;;;5072826;28;20948;-78
2022/09/09 00:38:24;;;;;;;0.50;0.50;;;15.60;99.90;;;;;;5072671;28;20476;-78
2022/09/09 00:40:53;;;;;;;0.83;0.50;;;15.60;99.90;;;;;;5072837;28;20435;-79
2022/09/09 00:43:27;;;;;;;0.43;0.30;;;15.60;99.90;;;;;;5072980;28;20469;-78
2022/09/09 00:46:14;;;;;;;0.30;0.30;;;15.60;99.90;;;;;;5072560;28;20417;-79
2022/09/09 00:48:50;;;;;;;0.30;0.30;;;15.70;99.90;;;;;;5072766;28;20439;-78
2022/09/09 00:51:27;;;;;;;0.40;0.40;;;15.70;99.90;;;;;;5073374;28;20437;-79
2022/09/09 00:54:16;;;;;;;0.40;0.30;;;15.70;99.90;;;;;;5072382;28;20465;-81
2022/09/09 00:56:51;;;;;;;0.40;0.40;;;15.70;99.90;;;;;;5075270;28;20461;-81
2022/09/09 00:59:31;;;;;;;0.40;0.30;;;15.80;99.90;;;;;;5076320;28;20432;-81
2022/09/09 01:01:59;;;;;;;0.30;0.30;;;15.80;99.90;;;;;;5076182;28;20439;-81
2022/09/09 01:04:31;;;;;;;0.30;0.30;;;15.80;99.90;;;;;;5076168;28;20945;-81
2022/09/09 01:07:09;;;;;;;0.40;0.30;;;15.70;99.90;;;;;;5076468;28;20435;-81
2022/09/09 01:09:43;;;;;;;0.40;0.33;;;15.70;99.90;;;;;;5075760;28;20840;-81
2022/09/09 01:12:15;;;;;;;0.73;0.40;;;15.70;99.90;;;;;;5076282;28;20464;-81
2022/09/09 01:14:48;;;;;;;1.33;0.33;;;15.70;99.90;;;;;;5076567;28;20850;-82
2022/09/09 01:17:21;;;;;;;0.43;0.40;;;15.70;99.90;;;;;;5075571;28;20464;-81
2022/09/09 01:20:05;;;;;;;0.73;0.70;;;15.60;99.90;;;;;;5075634;28;20789;-81
2022/09/09 01:22:37;;;;;;;0.40;0.30;;;15.60;99.90;;;;;;5075824;28;20452;-81
2022/09/09 01:25:20;;;;;;;0.30;0.30;;;15.50;99.90;;;;;;5075833;28;20430;-81
2022/09/09 01:27:51;;;;;;;0.57;0.40;;;15.60;99.90;;;;;;5075421;28;20526;-81
2022/09/09 01:30:19;;;;;;;0.40;0.40;;;15.60;99.90;;;;;;5075448;28;20901;-82
2022/09/09 01:32:48;;;;;;;0.30;0.30;;;15.50;99.90;;;;;;5075636;28;20468;-81
2022/09/09 01:35:24;;;;;;;0.40;0.40;;;15.50;99.90;;;;;;5075282;28;20464;-81
2022/09/09 01:37:51;;;;;;;0.40;0.30;;;15.50;99.90;;;;;;5075247;28;20468;-81
2022/09/09 01:40:18;;;;;;;0.40;0.40;;;15.50;99.90;;;;;;5076005;28;20442;-82
2022/09/09 01:42:45;;;;;;;0.30;0.30;;;15.50;99.90;;;;;;5075516;28;20820;-82
2022/09/09 01:45:13;;;;;;;0.40;0.30;;;15.50;99.90;;;;;;5075485;28;20449;-82
2022/09/09 01:47:40;;;;;;;0.40;0.30;;;15.50;99.90;;;;;;5075084;28;20456;-81
2022/09/09 01:50:09;;;;;;;0.70;0.40;;;15.50;99.90;;;;;;5075334;28;20457;-81
2022/09/09 01:52:37;;;;;;;0.40;0.40;;;15.50;99.90;;;;;;5074914;28;21026;-81
2022/09/09 01:55:04;;;;;;;0.30;0.30;;;15.50;99.90;;;;;;5075254;28;20457;-81
2022/09/09 01:57:39;;;;;;;0.40;0.40;;;15.50;99.90;;;;;;5075102;28;20480;-81
2022/09/09 02:00:09;;;;;;;0.37;0.30;;;15.40;99.90;;;;;;5075183;28;20796;-81
2022/09/09 02:02:45;;;;;;;0.50;0.43;;;15.40;99.90;;;;;;5075024;28;20549;-81
2022/09/09 02:05:19;;;;;;;0.70;0.60;;;15.40;99.90;;;;;;5075109;28;20437;-81
2022/09/09 02:07:49;;;;;;;0.60;0.40;;;15.30;99.90;;;;;;5074464;28;20425;-81
2022/09/09 02:10:20;;;;;;;0.30;0.30;;;15.30;99.90;;;;;;5074942;28;20449;-81
2022/09/09 02:12:51;;;;;;;0.37;0.30;;;15.30;99.90;;;;;;5074897;28;20522;-81
2022/09/09 02:15:24;;;;;;;0.40;0.40;;;15.30;99.90;;;;;;5074630;28;20936;-81
2022/09/09 02:17:53;;;;;;;0.60;0.40;;;15.30;99.90;;;;;;5074398;28;20833;-81
2022/09/09 02:20:21;;;;;;;0.47;0.47;;;15.30;99.90;;;;;;5074791;28;20494;-81
2022/09/09 02:22:52;;;;;;;0.53;0.30;;;15.20;99.90;;;;;;5074298;28;20984;-81
2022/09/09 02:25:22;;;;;;;0.40;0.30;;;15.20;99.90;;;;;;5074857;28;20483;-81
2022/09/09 02:27:51;;;;;;;0.40;0.30;;;15.20;99.90;;;;;;5074141;28;20506;-81
2022/09/09 02:30:19;;;;;;;0.40;0.37;;;15.10;99.90;;;;;;5074560;28;20447;-81
2022/09/09 02:32:47;;;;;;;0.40;0.30;;;15.10;99.90;;;;;;5074394;28;20838;-81
2022/09/09 02:35:20;;;;;;;0.30;0.30;;;15.20;99.90;;;;;;5074441;28;20445;-81
2022/09/09 02:37:47;;;;;;;0.30;0.30;;;15.10;99.90;;;;;;5074311;28;20505;-81
2022/09/09 02:40:16;;;;;;;0.30;0.30;;;15.10;99.90;;;;;;5074102;28;20487;-81
2022/09/09 02:42:44;;;;;;;2.17;0.30;;;15.10;99.90;;;;;;5073974;28;20996;-81
2022/09/09 02:45:15;;;;;;;0.40;0.40;;;15.20;99.90;;;;;;5074795;28;20457;-81
2022/09/09 02:47:48;;;;;;;1.23;0.50;;;15.10;99.90;;;;;;5073907;28;20901;-81
2022/09/09 02:50:20;;;;;;;0.40;0.30;;;15.10;99.90;;;;;;5074211;28;20800;-81
2022/09/09 02:53:02;;;;;;;0.40;0.30;;;15.10;99.90;;;;;;5074072;28;20500;-81
2022/09/09 02:55:38;;;;;;;0.40;0.30;;;15.10;99.90;;;;;;5074110;28;20440;-81
2022/09/09 02:58:08;;;;;;;2.10;0.40;;;15.20;99.90;;;;;;5074021;28;20467;-81
2022/09/09 03:00:36;;;;;;;0.37;0.30;;;15.10;99.90;;;;;;5074045;28;20445;-81
2022/09/09 03:03:03;;;;;;;0.40;0.30;;;15.10;99.90;;;;;;5074063;28;21026;-81
2022/09/09 03:05:32;;;;;;;0.30;0.30;;;15.10;99.90;;;;;;5073924;28;20937;-82
2022/09/09 03:07:59;;;;;;;0.77;0.30;;;15.10;99.90;;;;;;5073593;28;20441;-81
2022/09/09 03:10:26;;;;;;;0.30;0.30;;;15.10;99.90;;;;;;5073577;28;20447;-82
2022/09/09 03:12:52;;;;;;;0.50;0.40;;;15.10;99.90;;;;;;5073670;28;20464;-81
2022/09/09 03:15:20;;;;;;;0.30;0.30;;;15.00;99.90;;;;;;5073724;28;20460;-81
2022/09/09 03:17:47;;;;;;;0.40;0.30;;;15.00;99.90;;;;;;5073657;28;20512;-81
2022/09/09 03:20:14;;;;;;;0.40;0.30;;;15.00;99.90;;;;;;5072562;28;20449;-81
2022/09/09 03:22:43;;;;;;;0.40;0.30;;;15.00;99.90;;;;;;5073244;28;21013;-81
2022/09/09 03:25:10;;;;;;;0.40;0.33;;;15.00;99.90;;;;;;5073943;28;20470;-81
2022/09/09 03:27:37;;;;;;;0.40;0.40;;;15.00;99.90;;;;;;5073270;28;20480;-81
2022/09/09 03:30:04;;;;;;;0.40;0.40;;;14.90;99.90;;;;;;5073590;28;20449;-81
2022/09/09 03:32:32;;;;;;;0.30;0.30;;;14.90;99.90;;;;;;5073662;28;20837;-81
2022/09/09 03:34:59;;;;;;;0.30;0.30;;;14.90;99.90;;;;;;5073819;28;20449;-81
2022/09/09 03:37:25;;;;;;;0.40;0.30;;;14.90;99.90;;;;;;5073516;28;20451;-80
2022/09/09 03:39:55;;;;;;;0.30;0.30;;;14.90;99.90;;;;;;5073493;28;20449;-81
2022/09/09 03:42:22;;;;;;;0.30;0.30;;;14.80;99.90;;;;;;5073460;28;20472;-80
2022/09/09 03:44:49;;;;;;;0.40;0.40;;;14.80;99.90;;;;;;5073212;28;20944;-80
2022/09/09 03:47:17;;;;;;;0.40;0.40;;;14.80;99.90;;;;;;5073363;28;20449;-81
2022/09/09 03:49:44;;;;;;;1.23;0.53;;;14.80;99.90;;;;;;5073114;28;20974;-81
2022/09/09 03:52:11;;;;;;;0.40;0.30;;;14.80;99.90;;;;;;5073509;28;20479;-81
2022/09/09 03:54:39;;;;;;;0.57;0.30;;;14.80;99.90;;;;;;5073088;28;20436;-79
2022/09/09 03:57:07;;;;;;;0.40;0.30;;;14.80;99.90;;;;;;5073284;28;20457;-78
2022/09/09 03:59:34;;;;;;;0.40;0.40;;;14.80;99.90;;;;;;5072862;28;21003;-78
2022/09/09 04:02:02;;;;;;;2.07;0.57;;;14.70;99.90;;;;;;5073112;28;20502;-78
2022/09/09 04:04:28;;;;;;;3.10;0.40;;;14.70;99.90;;;;;;5073244;28;20445;-79
2022/09/09 04:06:56;;;;;;;0.30;0.30;;;14.60;99.90;;;;;;5072899;28;20445;-78
2022/09/09 04:09:22;;;;;;;1.07;0.40;;;14.70;99.90;;;;;;5073144;28;20456;-79
2022/09/09 04:11:50;;;;;;;0.37;0.33;;;14.70;99.90;;;;;;5073311;28;20447;-79
2022/09/09 04:14:18;;;;;;;0.40;0.37;;;14.70;99.90;;;;;;5073119;28;20449;-78
2022/09/09 04:16:45;;;;;;;0.30;0.20;;;14.70;99.90;;;;;;5073058;28;20456;-78
2022/09/09 04:19:13;;;;;;;0.30;0.30;;;14.70;99.90;;;;;;5072942;28;20481;-79
2022/09/09 04:21:40;;;;;;;0.40;0.40;;;14.70;99.90;;;;;;5072991;28;20528;-79
2022/09/09 04:24:07;;;;;;;0.30;0.30;;;14.80;99.90;;;;;;5072671;28;21001;-78
2022/09/09 04:26:36;;;;;;;0.40;0.40;;;14.80;99.90;;;;;;5072677;28;20480;-78
2022/09/09 04:29:02;;;;;;;0.40;0.37;;;14.80;99.90;;;;;;5072823;28;20460;-78
2022/09/09 04:31:31;;;;;;;1.53;0.50;;;14.80;99.90;;;;;;5075606;28;20448;-79
2022/09/09 04:33:58;;;;;;;0.50;0.50;;;14.80;99.90;;;;;;5076652;28;20873;-79
2022/09/09 04:36:24;;;;;;;0.40;0.30;;;14.90;99.90;;;;;;5076430;28;20456;-79
2022/09/09 04:38:51;;;;;;;0.50;0.50;;;14.90;99.90;;;;;;5076812;28;20485;-79
2022/09/09 04:41:18;;;;;;;0.80;0.60;;;14.90;99.90;;;;;;5076334;28;20940;-79
2022/09/09 04:43:45;;;;;;;0.40;0.40;;;14.90;99.90;;;;;;5076524;28;20468;-79
2022/09/09 04:46:12;;;;;;;1.17;0.30;;;14.80;99.90;;;;;;5076497;28;20444;-79
2022/09/09 04:48:40;;;;;;;0.40;0.30;;;14.90;99.90;;;;;;5076271;28;20800;-78
2022/09/09 04:51:09;;;;;;;0.30;0.30;;;14.90;99.90;;;;;;5076424;28;20497;-78
2022/09/09 04:53:36;;;;;;;0.50;0.40;;;14.90;99.90;;;;;;5076082;28;20467;-79
2022/09/09 04:56:04;;;;;;;0.40;0.30;;;14.80;99.90;;;;;;5076346;28;20448;-79
2022/09/09 04:58:31;;;;;;;0.67;0.40;;;14.80;99.90;;;;;;5076290;28;20477;-79
2022/09/09 05:01:05;;;;;;;0.40;0.40;;;14.70;99.90;;;;;;5076070;28;20462;-79
2022/09/09 05:03:31;;;;;;;0.30;0.30;;;14.70;99.90;;;;;;5076351;28;20449;-78
2022/09/09 05:06:05;;;;;;;0.40;0.30;;;14.70;99.90;;;;;;5076248;28;20849;-79
2022/09/09 05:08:32;;;;;;;0.40;0.30;;;14.70;99.90;;;;;;5075851;28;20950;-79
2022/09/09 05:11:00;;;;;;;2.07;0.90;;;14.70;99.90;;;;;;5076126;28;20547;-78
2022/09/09 05:13:27;;;;;;;2.00;0.50;;;14.70;99.90;;;;;;5076015;28;20460;-79
2022/09/09 05:15:54;;;;;;;0.40;0.33;;;14.70;99.90;;;;;;5075971;28;20492;-79
2022/09/09 05:18:22;;;;;;;0.33;0.30;;;14.80;99.90;;;;;;5075708;28;20987;-78
2022/09/09 05:20:49;;;;;;;0.40;0.30;;;14.90;99.90;;;;;;5075931;28;20451;-78
2022/09/09 05:23:17;;;;;;;0.40;0.40;;;14.90;99.90;;;;;;5075503;28;20464;-80
2022/09/09 05:25:43;;;;;;;0.30;0.30;;;15.00;99.90;;;;;;5076132;28;20468;-80
2022/09/09 05:28:11;;;;;;;0.40;0.40;;;15.00;99.90;;;;;;5075441;28;20464;-80
2022/09/09 05:30:38;;;;;;;0.30;0.30;;;15.00;99.90;;;;;;5075798;28;20451;-82
2022/09/09 05:33:06;;;;;;;2.30;0.50;;;15.00;99.90;;;;;;5075630;28;20567;-81
2022/09/09 05:35:33;;;;;;;0.60;0.40;;;15.00;99.90;;;;;;5075963;28;20448;-82
2022/09/09 05:38:01;;;;;;;0.40;0.40;;;15.10;99.90;;;;;;5075490;28;20444;-82
2022/09/09 05:40:29;;;;;;;0.50;0.40;;;15.10;99.90;;;;;;5075550;28;20453;-82
2022/09/09 05:43:00;;;;;;;0.93;0.70;;;15.10;99.90;;;;;;5074489;28;20472;-82
2022/09/09 05:45:27;;;;;;;0.40;0.30;;;15.10;99.90;;;;;;5075533;28;20437;-81
2022/09/09 05:47:54;;;;;;;0.40;0.30;;;15.10;99.90;;;;;;5075119;28;20811;-82
2022/09/09 05:50:21;;;;;;;1.27;0.40;;;15.00;99.90;;;;;;5075085;28;21066;-82
2022/09/09 05:52:49;;;;;;;0.40;0.33;;;15.00;99.90;;;;;;5075270;28;20473;-82
2022/09/09 05:55:17;;;;;;;0.40;0.40;;;15.00;99.90;;;;;;5075288;28;20456;-82
2022/09/09 05:57:49;;;;;;;0.40;0.30;;;15.10;99.90;;;;;;5075151;28;20461;-82
2022/09/09 06:00:16;;;;;;;0.50;0.30;;;15.10;99.90;;;;;;5075130;28;20495;-82
2022/09/09 06:02:43;;;;;;;0.37;0.30;;;15.10;99.90;;;;;;5075152;28;20975;-82
2022/09/09 06:05:11;;;;;;;0.40;0.40;;;15.10;99.90;;;;;;5075065;28;20448;-82
2022/09/09 06:07:41;;;;;;;0.40;0.40;;;15.10;99.90;;;;;;5075014;28;20452;-82
2022/09/09 06:10:09;;;;;;;0.40;0.40;;;15.20;99.90;;;;;;5074953;28;20503;-81
2022/09/09 06:12:35;;;;;;;0.33;0.30;;;15.30;99.90;;;;;;5075131;28;20472;-81
2022/09/09 06:15:05;;;;;;;0.40;0.40;;;15.30;99.90;;;;;;5074898;28;20444;-81
2022/09/09 06:17:31;;;;;;;0.30;0.30;;;15.40;99.90;;;;;;5074486;28;20452;-81
2022/09/09 06:19:59;;;;;;;0.43;0.43;;;15.40;99.90;;;;;;5075540;28;20476;-81
2022/09/09 06:22:25;;;;;;;0.60;0.40;;;15.50;99.90;;;;;;5074783;28;20477;-81
2022/09/09 06:24:53;;;;;;;0.60;0.50;;;15.50;99.90;;;;;;5074452;28;20440;-81
2022/09/09 06:27:20;;;;;;;0.37;0.30;;;15.50;99.90;;;;;;5074397;28;20563;-82
2022/09/09 06:29:47;;;;;;;0.30;0.30;;;15.50;99.90;;;;;;5074651;28;20453;-81
2022/09/09 06:32:15;;;;;;;0.40;0.30;;;15.50;99.90;;;;;;5074525;28;20495;-82
2022/09/09 06:34:42;;;;;;;0.40;0.30;;;15.60;99.90;;;;;;5074271;28;20967;-81
2022/09/09 06:37:09;;;;;;;0.40;0.40;;;15.60;99.90;;;;;;5074458;28;20451;-81
2022/09/09 06:39:36;;;;;;;0.40;0.40;;;15.70;99.90;;;;;;5073976;28;20995;-81
2022/09/09 06:42:03;;;;;;;0.80;0.40;;;15.70;99.90;;;;;;5074031;28;20816;-81
2022/09/09 06:44:31;;;;;;;0.40;0.40;;;15.90;99.90;;;;;;5074279;28;20456;-82
2022/09/09 06:46:58;;;;;;;0.67;0.43;;;15.90;99.90;;;;;;5074199;28;20449;-81
2022/09/09 06:49:26;;;;;;;0.47;0.47;;;16.00;99.90;;;;;;5074177;28;20453;-81
2022/09/09 06:51:53;;;;;;;0.30;0.30;;;16.10;99.90;;;;;;5073864;28;20435;-81
2022/09/09 06:54:22;;;;;;;1.17;0.30;;;16.20;99.90;;;;;;5073717;28;20823;-81
2022/09/09 06:56:49;;;;;;;0.40;0.40;;;16.20;99.90;;;;;;5074051;28;20478;-81
2022/09/09 06:59:16;;;;;;;1.90;0.50;;;16.30;99.90;;;;;;5073625;28;20988;-82
2022/09/09 07:01:44;;;;;;;0.37;0.37;;;16.40;99.90;;;;;;5073600;28;20975;-81
2022/09/09 07:04:12;;;;;;;0.40;0.40;;;16.50;99.90;;;;;;5073714;28;20495;-81
2022/09/09 07:06:43;;;;;;;0.40;0.40;;;16.50;99.90;;;;;;5073597;28;21036;-81
2022/09/09 07:09:12;;;;;;;0.90;0.70;;;16.60;99.90;;;;;;5073582;28;20436;-81
2022/09/09 07:11:41;;;;;;;0.30;0.30;;;16.70;99.90;;;;;;5073846;28;20811;-81
2022/09/09 07:14:08;;;;;;;0.30;0.30;;;16.80;99.90;;;;;;5073438;28;20869;-81
2022/09/09 07:16:36;;;;;;;0.30;0.30;;;16.80;99.90;;;;;;5073717;28;20498;-81
2022/09/09 07:19:04;;;;;;;0.40;0.30;;;16.90;99.90;;;;;;5073636;28;21029;-82
2022/09/09 07:21:32;;;;;;;0.40;0.37;;;16.90;99.90;;;;;;5073677;28;20456;-82
2022/09/09 07:24:01;;;;;;;6.33;0.40;;;16.90;99.90;;;;;;5073232;28;20540;-81
2022/09/09 07:26:29;;;;;;;0.40;0.30;;;17.10;99.90;;;;;;5073137;28;21015;-81
2022/09/09 07:28:56;;;;;;;0.30;0.30;;;17.10;99.90;;;;;;5073367;28;20437;-81
2022/09/09 07:31:25;;;;;;;0.50;0.50;;;17.30;99.90;;;;;;5073834;28;20444;-81
2022/09/09 07:33:53;;;;;;;0.50;0.50;;;17.50;99.90;;;;;;5073381;28;20457;-81
2022/09/09 07:36:22;;;;;;;0.40;0.40;;;17.60;99.90;;;;;;5073507;28;20445;-81
2022/09/09 07:38:51;;;;;;;0.40;0.40;;;17.60;99.90;;;;;;5073391;28;20489;-81
2022/09/09 07:41:21;;;;;;;0.40;0.30;;;17.60;99.90;;;;;;5073388;28;20940;-81
2022/09/09 07:43:50;;;;;;;1.10;0.63;;;17.70;99.90;;;;;;5073121;28;20983;-82
2022/09/09 07:46:19;;;;;;;1.07;0.93;;;17.90;99.90;;;;;;5073403;28;20448;-81
2022/09/09 07:48:46;;;;;;;1.97;0.80;;;17.70;99.90;;;;;;5073361;28;20455;-81
2022/09/09 07:51:19;;;;;;;1.40;0.53;;;17.70;99.90;;;;;;5073269;28;20456;-81
2022/09/09 07:53:47;;;;;;;0.60;0.30;;;17.70;99.90;;;;;;5072948;28;20980;-82
2022/09/09 07:56:16;;;;;;;0.30;0.30;;;17.80;99.90;;;;;;5073090;28;20437;-82
2022/09/09 07:58:47;;;;;;;2.93;0.40;;;18.00;99.90;;;;;;5073193;28;20456;-82
2022/09/09 08:01:17;;;;;;;0.40;0.30;;;18.10;99.90;;;;;;5073309;28;20433;-83
2022/09/09 08:03:45;;;;;;;0.40;0.30;;;18.30;99.90;;;;;;5073234;28;20476;-82
2022/09/09 08:06:13;;;;;;;1.90;0.50;;;18.40;99.90;;;;;;5075678;28;20436;-82
2022/09/09 08:08:41;;;;;;;0.40;0.30;;;18.60;99.90;;;;;;5077289;28;20449;-83
2022/09/09 08:11:10;;;;;;;0.40;0.40;;;18.80;99.90;;;;;;5077204;28;20448;-82
2022/09/09 08:13:38;;;;;;;0.70;0.50;;;18.90;99.90;;;;;;5076819;28;21022;-82
2022/09/09 08:16:08;;;;;;;0.30;0.30;;;19.10;99.90;;;;;;5076935;28;20436;-83
2022/09/09 08:18:35;;;;;;;0.50;0.40;;;19.20;99.90;;;;;;5077155;28;20436;-83
2022/09/09 08:21:11;;;;;;;0.50;0.40;;;19.50;99.90;;;;;;5076992;28;20484;-84
2022/09/09 08:23:38;;;;;;;0.40;0.30;;;19.80;99.90;;;;;;5077214;28;20468;-83
2022/09/09 08:26:09;;;;;;;0.40;0.30;;;19.80;99.90;;;;;;5076923;28;20517;-83
2022/09/09 08:28:35;;;;;;;1.57;0.60;;;20.00;99.90;;;;;;5077366;28;20441;-82
2022/09/09 08:31:12;;;;;;;0.43;0.33;;;20.10;99.90;;;;;;5076916;28;20448;-83
2022/09/09 08:33:39;;;;;;;0.40;0.33;;;20.30;99.90;;;;;;5076518;28;20456;-84
2022/09/09 08:36:08;;;;;;;0.50;0.40;;;20.40;99.90;;;;;;5076833;28;20429;-81
2022/09/09 08:38:35;;;;;;;0.40;0.33;;;20.40;99.90;;;;;;5076716;28;20455;-81
2022/09/09 08:41:23;;;;;;;0.60;0.50;;;20.60;99.90;;;;;;5076590;28;20480;-82
2022/09/09 08:43:59;;;;;;;0.50;0.40;;;20.80;99.90;;;;;;5076277;28;20835;-81
2022/09/09 08:46:39;;;;;;;0.60;0.60;;;20.80;99.90;;;;;;5076327;28;20436;-81
2022/09/09 08:49:20;;;;;;;2.53;0.60;;;21.00;99.90;;;;;;5076230;28;20448;-81
2022/09/09 08:51:47;;;;;;;0.30;0.30;;;21.10;99.90;;;;;;5076448;28;20432;-81
2022/09/09 08:54:14;;;;;;;0.80;0.33;;;21.10;99.90;;;;;;5076215;28;20440;-81
2022/09/09 08:56:41;;;;;;;0.90;0.57;;;20.80;99.90;;;;;;5076414;28;20449;-80
2022/09/09 08:59:12;;;;;;;0.37;0.33;;;20.40;99.90;;;;;;5076270;28;20456;-82
2022/09/09 09:01:51;;;;;;;0.37;0.30;;;20.00;99.90;;;;;;5076597;28;20421;-81
2022/09/09 09:04:40;;;;;;;2.70;0.40;;;19.20;99.90;;;;;;5076526;28;20861;-81
2022/09/09 09:07:21;;;;;;;2.40;0.40;;;18.30;99.90;;;;;;5075882;28;20456;-81
2022/09/09 09:09:58;;;;;;;4.70;0.50;;;17.50;99.90;;;;;;5076245;28;20443;-79
2022/09/09 09:12:28;;;;;;;0.40;0.37;;;16.90;99.90;;;;;;5075810;28;20476;-79
2022/09/09 09:14:57;;;;;;;0.30;0.20;;;16.50;99.90;;;;;;5076097;28;20433;-79
2022/09/09 09:17:27;;;;;;;0.30;0.30;;;16.10;99.90;;;;;;5074631;28;20452;-79
2022/09/09 09:19:54;;;;;;;0.30;0.30;;;15.90;99.90;;;;;;5075872;28;20475;-79
2022/09/09 09:22:23;;;;;;;0.40;0.30;;;15.90;99.90;;;;;;5075865;28;20468;-79
2022/09/09 09:24:53;;;;;;;0.40;0.30;;;16.10;99.90;;;;;;5075882;28;20445;-79
2022/09/09 09:27:28;;;;;;;0.40;0.40;;;16.50;99.90;;;;;;5075618;28;20473;-79
2022/09/09 09:29:58;;;;;;;0.50;0.50;;;16.80;99.90;;;;;;5075773;28;20429;-79
2022/09/09 09:32:31;;;;;;;0.83;0.50;;;17.00;99.90;;;;;;5075815;28;20514;-77
2022/09/09 09:35:04;;;;;;;0.30;0.30;;;17.10;99.90;;;;;;5075734;28;20432;-77
2022/09/09 09:37:33;;;;;;;0.50;0.30;;;17.20;99.90;;;;;;5075713;28;20498;-77
2022/09/09 09:40:10;;;;;;;5.30;0.87;;;17.40;99.90;;;;;;5075906;28;20904;-78
2022/09/09 09:42:38;;;;;;;0.40;0.40;;;17.70;99.90;;;;;;5075547;28;20500;-79
2022/09/09 09:45:16;;;;;;;0.40;0.30;;;18.30;99.90;;;;;;5076216;28;20477;-81
2022/09/09 09:47:44;;;;;;;0.40;0.40;;;19.00;99.90;;;;;;5075529;28;20486;-79
2022/09/09 09:50:19;;;;;;;0.60;0.60;;;19.60;99.90;;;;;;5075436;28;20441;-80
2022/09/09 09:52:55;;;;;;;0.60;0.40;;;19.90;99.90;;;;;;5076076;28;20467;-80
2022/09/09 09:55:23;;;;;;;0.70;0.40;;;20.00;99.90;;;;;;5075397;28;20471;-80
2022/09/09 09:57:51;;;;;;;0.50;0.40;;;20.10;99.90;;;;;;5075345;28;20448;-80
2022/09/09 10:00:20;;;;;;;1.00;0.40;;;20.10;99.90;;;;;;5075067;28;20472;-77
2022/09/09 10:02:51;;;;;;;0.40;0.30;;;20.20;99.90;;;;;;5075125;28;20509;-78
2022/09/09 10:05:20;;;;;;;0.53;0.33;;;20.10;99.90;;;;;;5075224;28;20460;-78
2022/09/09 10:07:47;;;;;;;0.60;0.40;;;19.90;99.90;;;;;;5075067;28;20509;-78
2022/09/09 10:10:22;;;;;;;0.50;0.40;;;19.70;99.90;;;;;;5075023;28;20452;-81
2022/09/09 10:12:58;;;;;;;0.40;0.40;;;19.50;99.90;;;;;;5074856;28;20455;-80
2022/09/09 10:15:38;;;;;;;0.40;0.40;;;19.20;99.90;;;;;;5075027;28;20428;-80
2022/09/09 10:18:20;;;;;;;0.50;0.40;;;19.10;99.90;;;;;;5074923;28;20472;-79
2022/09/09 10:20:55;;;;;;;0.40;0.40;;;19.00;99.90;;;;;;5074743;28;20468;-78
2022/09/09 10:23:35;;;;;;;0.43;0.40;;;18.90;99.90;;;;;;5074996;28;20468;-80
2022/09/09 10:26:17;;;;;;;0.40;0.40;;;18.80;99.90;;;;;;5074253;28;20433;-79
2022/09/09 10:29:01;;;;;;;0.40;0.30;;;18.70;99.90;;;;;;5074522;28;20433;-78
2022/09/09 10:31:40;;;;;;;0.40;0.40;;;18.50;99.90;;;;;;5074331;28;20459;-78
2022/09/09 10:34:25;;;;;;;2.40;0.60;;;18.50;99.90;;;;;;5074389;28;20830;-81
2022/09/09 10:36:52;;;;;;;0.40;0.40;;;18.50;99.90;;;;;;5075073;28;20425;-81
2022/09/09 10:39:34;;;;;;;0.40;0.30;;;18.70;99.90;;;;;;5074452;28;20811;-81
2022/09/09 10:42:07;;;;;;;0.40;0.40;;;19.00;99.90;;;;;;5074329;28;20433;-80
2022/09/09 10:44:59;;;;;;;0.50;0.40;;;19.20;99.90;;;;;;5074821;28;20434;-79
2022/09/09 10:47:58;;;;;;;4.47;0.40;;;19.30;99.90;;;;;;5073996;28;20797;-79
2022/09/09 10:50:41;;;;;;;0.40;0.40;;;19.50;99.90;;;;;;5074282;28;20813;-80
2022/09/09 10:53:19;;;;;;;0.50;0.50;;;19.90;99.90;;;;;;5073926;28;20854;-81
2022/09/09 10:55:52;;;;;;;0.40;0.30;;;20.70;99.90;;;;;;5074204;28;20410;-78
2022/09/09 10:58:24;;;;;;;0.30;0.30;;;21.70;99.90;;;;;;5073884;28;20932;-81
2022/09/09 11:00:55;;;;;;;0.40;0.30;;;21.80;99.90;;;;;;5074031;28;20472;-79
2022/09/09 11:03:26;;;;;;;1.77;0.40;;;21.80;99.90;;;;;;5073683;28;20857;-78
2022/09/09 11:05:58;;;;;;;0.40;0.30;;;21.60;99.90;;;;;;5074072;28;20437;-79
2022/09/09 11:08:27;;;;;;;0.83;0.40;;;21.50;99.90;;;;;;5073591;28;20821;-83
2022/09/09 11:11:01;;;;;;;0.40;0.30;;;21.20;99.90;;;;;;5073573;28;20445;-83
2022/09/09 11:13:38;;;;;;;0.40;0.40;;;20.70;99.90;;;;;;5074002;28;20849;-83
2022/09/09 11:16:14;;;;;;;6.27;0.40;;;20.30;99.90;;;;;;5073768;28;20428;-81
2022/09/09 11:18:42;;;;;;;1.33;0.30;;;20.10;99.90;;;;;;5073841;28;20441;-83
2022/09/09 11:21:18;;;;;;;0.40;0.30;;;19.80;99.90;;;;;;5073706;28;20576;-85
2022/09/09 11:23:49;;;;;;;0.30;0.30;;;19.60;99.90;;;;;;5074776;28;20551;-83
2022/09/09 11:26:22;;;;;;;0.70;0.30;;;19.50;99.90;;;;;;5073499;28;20476;-83
2022/09/09 11:29:05;;;;;;;0.30;0.30;;;19.30;99.90;;;;;;5073653;28;20785;-79
2022/09/09 11:31:45;;;;;;;0.40;0.30;;;19.20;99.90;;;;;;5073197;28;20426;-78
2022/09/09 11:34:27;;;;;;;0.40;0.30;;;19.10;99.90;;;;;;5073386;28;20516;-78
2022/09/09 11:37:14;;;;;;;0.40;0.30;;;19.10;99.90;;;;;;5073546;28;20440;-78
2022/09/09 11:40:08;;;;;;;0.30;0.30;;;19.00;99.90;;;;;;5072584;28;20429;-78
2022/09/09 11:42:35;;;;;;;0.30;0.20;;;18.70;99.90;;;;;;5073416;28;20492;-78
2022/09/09 11:45:25;;;;;;;0.30;0.30;;;18.60;99.90;;;;;;5073637;28;20799;-81
2022/09/09 11:47:54;;;;;;;0.30;0.30;;;18.50;99.90;;;;;;5073093;28;20433;-81
2022/09/09 11:50:34;;;;;;;10.60;0.30;;;18.50;99.90;;;;;;5073098;28;20441;-81
2022/09/09 11:53:20;;;;;;;0.40;0.30;;;18.40;99.90;;;;;;5073382;28;20478;-77
2022/09/09 11:55:48;;;;;;;0.30;0.20;;;18.60;99.90;;;;;;5073067;28;20869;-80
2022/09/09 11:58:20;;;;;;;0.30;0.23;;;18.80;99.90;;;;;;5073308;28;20452;-78
2022/09/09 12:00:48;;;;;;;0.30;0.30;;;18.90;99.90;;;;;;5073276;28;20488;-80
2022/09/09 12:03:35;;;;;;;0.30;0.30;;;19.00;99.90;;;;;;5073019;28;20457;-78
2022/09/09 12:06:13;;;;;;;0.30;0.30;;;19.10;99.90;;;;;;5073262;28;20425;-78
2022/09/09 12:08:44;;;;;;;0.40;0.30;;;19.20;99.90;;;;;;5073153;28;20433;-81
2022/09/09 12:11:11;;;;;;;0.30;0.30;;;19.30;99.90;;;;;;5073260;28;20877;-80
2022/09/09 12:13:38;;;;;;;0.30;0.30;;;19.50;99.90;;;;;;5073118;28;20460;-86
2022/09/09 12:16:06;;;;;;;0.40;0.37;;;19.50;99.90;;;;;;5073096;28;20413;-79
2022/09/09 12:18:36;;;;;;;0.40;0.30;;;19.60;99.90;;;;;;5073013;28;20445;-78
2022/09/09 12:21:08;;;;;;;2.60;0.40;;;19.60;99.90;;;;;;5073551;28;20469;-86
2022/09/09 12:23:46;;;;;;;0.30;0.30;;;19.70;99.90;;;;;;5073142;28;20480;-81
2022/09/09 12:26:32;;;;;;;0.40;0.33;;;19.70;99.90;;;;;;5072888;28;20484;-80
2022/09/09 12:29:11;;;;;;;0.30;0.30;;;19.70;99.90;;;;;;5073019;28;20445;-80
2022/09/09 12:31:44;;;;;;;0.43;0.43;;;19.60;99.90;;;;;;5072691;28;20982;-81
2022/09/09 12:34:15;;;;;;;0.30;0.30;;;19.60;99.90;;;;;;5072735;28;20433;-80
2022/09/09 12:36:46;;;;;;;0.40;0.40;;;19.60;99.90;;;;;;5072960;28;20512;-78
2022/09/09 12:39:23;;;;;;;0.37;0.30;;;19.50;99.90;;;;;;5072660;28;20433;-78
2022/09/09 12:41:57;;;;;;;0.30;0.30;;;19.60;99.90;;;;;;5072492;28;20475;-78
2022/09/09 12:44:24;;;;;;;0.90;0.30;;;19.70;99.90;;;;;;5072899;28;20435;-78
2022/09/09 12:46:54;;;;;;;0.30;0.30;;;19.70;99.90;;;;;;5072793;28;20463;-78
2022/09/09 12:49:33;;;;;;;0.30;0.30;;;19.70;99.90;;;;;;5072483;28;20457;-84
2022/09/09 12:52:05;;;;;;;0.90;0.40;;;19.70;99.90;;;;;;5074622;28;20439;-80
2022/09/09 12:54:35;;;;;;;0.93;0.37;;;19.70;99.90;;;;;;5077437;28;20448;-80
2022/09/09 12:57:02;;;;;;;0.40;0.30;;;19.70;99.90;;;;;;5076509;28;20425;-78
2022/09/09 12:59:37;;;;;;;0.40;0.40;;;19.60;99.90;;;;;;5076649;28;20449;-78
2022/09/09 13:02:18;;;;;;;0.40;0.30;;;19.70;99.90;;;;;;5076221;28;20488;-78
2022/09/09 13:04:46;;;;;;;0.83;0.30;;;19.70;99.90;;;;;;5076074;28;20409;-78
2022/09/09 13:07:15;;;;;;;0.30;0.30;;;19.80;99.90;;;;;;5076283;28;20448;-78